OIAH  Gachsaran  Airport

Iran

Add Bookmark
Status
Operational
Latitude Longitude
30° 20' 15" N 50° 49' 40" E
30.337601 50.827999
Local (DST + 5) UTC (GMT + 4)
Mar 29, 2015 04:19 Mar 28, 2015 23:49
Sunrise-Sunset Local UTC
Begin Civil Twilight 06:34 02:04
Sunrise 06:58 02:28
Sunset 07:24 14:54
End Civil Twilight 07:48 15:18

Current Weather

METAR Observed VFR
OIAH 282258Z 00000KT CAVOK 12/09 Q1016 Sat, Mar 28, 2015 @ 22:58 UTC
(51 Minutes ago)
Visual Flight Rules
Wind Visibility Clouds Conditions
Calm 10 km or more
  • Clear skies
  • No significant weather
Temperatures Readings Precipitation
Current Temp 12°C (54°F)
Dewpoint 9°C (48°F)
Humidity 82%
Altimeter 30"Hg
Sea Level Pressure 1016mb
Field Elevation 2421.26'
None Recorded

Additional weather within a 92.6km radius of OIAH

Map ICAO Location
OISY 79.6km E (059°)

24 Hour Weather History

Loading
-

24 Hour Weather Graphs

Loading
-

CheckWX.com is intended as a tool to help pilots better visualize weather data. It is not intended as a substitute for an official weather briefing obtained from a Flight Service Station. CheckWX.com does not meet the FAA requirements for an official pre-flight weather briefing. Therefore, it's important that pilots still call and obtain an official FSS pre-flight weather briefing.